Terminal Aerodrome Forecast
Issued by NWS Austin/San Antonio, TX

Home | Current Version | Previous Version | Text Only | Print | Product List | Glossary On
Versions: 1 2 3 4 5 6 7 8 9 10 11 12 13 14 15 16 17 18 19 20 21 22
922
FTUS44 KEWX 270659 AAA
TAFAUS
TAF AMD
KAUS 270659Z 2707/2812 18011KT P6SM OVC016
     FM270800 19008KT P6SM OVC008
     FM271200 19005KT 2SM BR OVC004
     FM271600 20005KT P6SM OVC015
     FM271800 16008KT P6SM BKN050
     FM280600 15008KT 5SM BR OVC008=

USA.gov is the U.S. government's official web portal to all federal, state and local government web resources and services.